createdAt,value
2022-08-26T00:00:51.789Z,100.00
2022-08-26T00:03:20.844Z,100.00
2022-08-26T00:05:52.074Z,100.00
2022-08-26T00:08:21.685Z,100.00
2022-08-26T00:10:50.344Z,100.00
2022-08-26T00:13:19.520Z,100.00
2022-08-26T00:15:48.270Z,100.00
2022-08-26T00:18:22.270Z,100.00
2022-08-26T00:20:52.826Z,100.00
2022-08-26T00:23:24.067Z,100.00
2022-08-26T00:25:53.094Z,100.00
2022-08-26T00:28:22.935Z,100.00
2022-08-26T00:30:52.522Z,100.00
2022-08-26T00:33:23.114Z,100.00
2022-08-26T00:35:53.062Z,100.00
2022-08-26T00:38:22.881Z,100.00
2022-08-26T00:40:53.956Z,100.00
2022-08-26T00:43:24.226Z,100.00
2022-08-26T00:45:58.549Z,100.00
2022-08-26T00:48:31.902Z,100.00
2022-08-26T00:51:07.661Z,100.00
2022-08-26T00:53:41.496Z,100.00
2022-08-26T00:56:17.023Z,100.00
2022-08-26T00:58:48.102Z,100.00
2022-08-26T01:01:17.410Z,100.00
2022-08-26T01:03:47.575Z,100.00
2022-08-26T01:06:18.036Z,100.00
2022-08-26T01:08:46.510Z,100.00
2022-08-26T01:11:15.306Z,100.00
2022-08-26T01:13:45.333Z,100.00
2022-08-26T01:16:16.906Z,100.00
2022-08-26T01:18:46.976Z,100.00
2022-08-26T01:21:23.099Z,100.00
2022-08-26T01:23:57.280Z,100.00
2022-08-26T01:26:29.822Z,100.00
2022-08-26T01:29:01.606Z,100.00
2022-08-26T01:31:34.043Z,100.00
2022-08-26T01:34:07.782Z,100.00
2022-08-26T01:36:38.735Z,100.00
2022-08-26T01:39:09.919Z,100.00
2022-08-26T01:41:40.681Z,100.00
2022-08-26T01:44:19.535Z,100.00
2022-08-26T01:46:52.367Z,100.00
2022-08-26T01:49:24.305Z,100.00
2022-08-26T01:51:56.686Z,100.00
2022-08-26T01:54:28.131Z,100.00
2022-08-26T01:56:56.740Z,100.00
2022-08-26T01:59:26.682Z,100.00
2022-08-26T02:01:55.378Z,100.00
2022-08-26T02:04:28.880Z,100.00
2022-08-26T02:06:59.135Z,100.00
2022-08-26T02:09:29.100Z,100.00
2022-08-26T02:12:01.766Z,100.00
2022-08-26T02:14:34.571Z,100.00
2022-08-26T02:17:04.761Z,100.00
2022-08-26T02:19:40.918Z,100.00
2022-08-26T02:22:16.325Z,100.00
2022-08-26T02:24:51.121Z,100.00
2022-08-26T02:27:25.065Z,100.00
2022-08-26T02:30:00.137Z,100.00
2022-08-26T02:32:29.940Z,100.00
2022-08-26T02:34:58.438Z,100.00
2022-08-26T02:37:30.083Z,100.00
2022-08-26T02:40:00.204Z,100.00
2022-08-26T02:42:28.782Z,100.00
2022-08-26T02:44:57.907Z,100.00
2022-08-26T02:47:28.960Z,100.00
2022-08-26T02:49:57.765Z,100.00
2022-08-26T02:52:26.290Z,100.00
2022-08-26T02:54:56.828Z,100.00
2022-08-26T02:57:26.759Z,100.00
2022-08-26T02:59:55.241Z,100.00
2022-08-26T03:02:23.799Z,100.00
2022-08-26T03:04:57.888Z,100.00
2022-08-26T03:07:32.181Z,100.00
2022-08-26T03:10:01.362Z,100.00
2022-08-26T03:12:38.305Z,100.00
2022-08-26T03:15:17.344Z,100.00
2022-08-26T03:17:47.917Z,100.00
2022-08-26T03:20:17.635Z,100.00
2022-08-26T03:22:46.821Z,100.00
2022-08-26T03:25:18.364Z,100.00
2022-08-26T03:27:48.471Z,100.00
2022-08-26T03:30:35.274Z,100.00
2022-08-26T03:33:04.294Z,100.00
2022-08-26T03:35:33.318Z,100.00
2022-08-26T03:38:03.567Z,100.00
2022-08-26T03:40:33.900Z,100.00
2022-08-26T03:43:06.393Z,100.00
2022-08-26T03:45:38.202Z,100.00
2022-08-26T03:48:07.107Z,100.00
2022-08-26T03:50:36.624Z,100.00
2022-08-26T03:53:07.469Z,100.00
2022-08-26T03:55:43.179Z,100.00
2022-08-26T03:58:13.261Z,100.00
2022-08-26T04:04:00.825Z,100.00
2022-08-26T04:06:32.755Z,100.00
2022-08-26T04:09:03.407Z,100.00
2022-08-26T04:11:35.247Z,100.00
2022-08-26T04:14:10.454Z,100.00
2022-08-26T04:16:39.204Z,100.00
2022-08-26T04:19:08.094Z,100.00
2022-08-26T04:21:38.418Z,100.00
2022-08-26T04:24:11.369Z,100.00
2022-08-26T04:26:42.820Z,100.00
2022-08-26T04:29:17.782Z,100.00
2022-08-26T04:31:47.076Z,100.00
2022-08-26T04:34:17.710Z,100.00
2022-08-26T04:36:46.253Z,100.00
2022-08-26T04:39:18.739Z,100.00
2022-08-26T04:41:50.292Z,100.00
2022-08-26T04:44:20.721Z,100.00
2022-08-26T04:46:50.124Z,100.00
2022-08-26T04:49:19.713Z,100.00
2022-08-26T04:51:49.103Z,100.00
2022-08-26T04:54:17.818Z,100.00
2022-08-26T04:56:49.689Z,100.00
2022-08-26T04:59:20.228Z,100.00
2022-08-26T05:01:56.443Z,100.00
2022-08-26T05:04:25.002Z,100.00
2022-08-26T05:06:57.824Z,100.00
2022-08-26T05:09:30.715Z,100.00
2022-08-26T05:11:59.386Z,100.00
2022-08-26T05:14:29.388Z,100.00
2022-08-26T05:16:58.100Z,100.00
2022-08-26T05:19:27.827Z,100.00
2022-08-26T05:21:56.641Z,100.00
2022-08-26T05:24:25.593Z,100.00
2022-08-26T05:26:54.247Z,100.00
2022-08-26T05:29:25.420Z,100.00
2022-08-26T05:31:55.989Z,100.00
2022-08-26T05:34:25.753Z,100.00
2022-08-26T05:36:58.727Z,100.00
2022-08-26T05:39:27.246Z,100.00
2022-08-26T05:41:55.681Z,100.00
2022-08-26T05:44:25.037Z,100.00
2022-08-26T05:46:53.562Z,100.00
2022-08-26T05:49:26.394Z,100.00
2022-08-26T05:51:55.247Z,100.00
2022-08-26T05:54:24.006Z,100.00
2022-08-26T05:56:52.795Z,100.00
2022-08-26T05:59:24.625Z,100.00
2022-08-26T06:01:54.993Z,100.00
2022-08-26T06:04:27.028Z,100.00
2022-08-26T06:06:58.621Z,100.00
2022-08-26T06:09:27.976Z,100.00
2022-08-26T06:11:58.843Z,100.00
2022-08-26T06:14:27.574Z,100.00
2022-08-26T06:16:56.185Z,100.00
2022-08-26T06:19:26.117Z,100.00
2022-08-26T06:22:23.533Z,100.00
2022-08-26T06:25:10.067Z,100.00
2022-08-26T06:27:38.743Z,100.00
2022-08-26T06:30:09.861Z,100.00
2022-08-26T06:32:38.314Z,100.00
2022-08-26T06:35:11.961Z,100.00
2022-08-26T06:37:41.243Z,100.00
2022-08-26T06:40:10.610Z,100.00
2022-08-26T06:42:40.326Z,100.00
2022-08-26T06:45:09.678Z,100.00
2022-08-26T06:47:39.815Z,100.00
2022-08-26T06:50:10.501Z,100.00
2022-08-26T06:52:39.112Z,100.00
2022-08-26T06:55:08.406Z,100.00
2022-08-26T06:57:39.710Z,100.00
2022-08-26T07:00:11.412Z,100.00
2022-08-26T07:02:41.159Z,100.00
2022-08-26T07:05:16.987Z,100.00
2022-08-26T07:07:45.452Z,99.58
2022-08-26T07:10:13.918Z,95.00
2022-08-26T07:12:42.601Z,95.21
2022-08-26T07:15:15.938Z,98.49
2022-08-26T07:17:44.820Z,100.00
2022-08-26T07:20:13.759Z,91.47
2022-08-26T07:22:43.903Z,93.35
2022-08-26T07:25:12.569Z,88.51
2022-08-26T07:27:41.062Z,84.95
2022-08-26T07:30:10.500Z,82.61
2022-08-26T07:32:43.586Z,78.32
2022-08-26T07:35:12.086Z,71.41
2022-08-26T07:37:40.755Z,65.05
2022-08-26T07:40:11.965Z,63.54
2022-08-26T07:42:40.766Z,62.21
2022-08-26T07:45:09.646Z,60.50
2022-08-26T07:47:38.399Z,58.61
2022-08-26T07:50:07.525Z,57.02
2022-08-26T07:52:37.755Z,54.95
2022-08-26T07:55:08.855Z,52.74
2022-08-26T07:57:39.979Z,50.00
2022-08-26T08:00:13.002Z,48.79
2022-08-26T08:02:44.724Z,48.92
2022-08-26T08:05:14.247Z,46.45
2022-08-26T08:07:44.790Z,43.94
2022-08-26T08:10:17.520Z,42.25
2022-08-26T08:12:49.744Z,40.68
2022-08-26T08:15:21.349Z,39.93
2022-08-26T08:17:51.535Z,38.47
2022-08-26T08:20:21.896Z,38.04
2022-08-26T08:22:52.230Z,36.84
2022-08-26T08:25:22.937Z,35.61
2022-08-26T08:27:52.832Z,35.89
2022-08-26T08:30:23.319Z,36.29
2022-08-26T08:32:52.480Z,34.77
2022-08-26T08:35:22.704Z,33.26
2022-08-26T08:37:54.515Z,32.58
2022-08-26T08:40:25.626Z,31.53
2022-08-26T08:43:00.739Z,31.25
2022-08-26T08:45:37.066Z,31.79
2022-08-26T08:48:12.182Z,32.00
2022-08-26T08:50:45.969Z,32.01
2022-08-26T08:53:18.750Z,31.73
2022-08-26T08:56:06.338Z,31.99
2022-08-26T08:58:52.737Z,30.63
2022-08-26T09:01:42.814Z,30.72
2022-08-26T09:04:35.278Z,30.58
2022-08-26T09:07:05.793Z,31.56
2022-08-26T09:09:39.249Z,32.72
2022-08-26T09:12:13.948Z,30.34
2022-08-26T09:14:44.583Z,30.55
2022-08-26T09:17:24.158Z,29.41
2022-08-26T09:19:55.943Z,29.78
2022-08-26T09:22:33.176Z,33.93
2022-08-26T09:25:03.358Z,36.02
2022-08-26T09:27:40.613Z,36.28
2022-08-26T09:30:13.619Z,37.67
2022-08-26T09:32:42.962Z,38.61
2022-08-26T09:35:27.671Z,38.55
2022-08-26T09:37:57.205Z,39.45
2022-08-26T09:40:30.706Z,39.39
2022-08-26T09:43:22.904Z,41.54
2022-08-26T09:45:59.255Z,41.63
2022-08-26T09:48:32.289Z,38.67
2022-08-26T09:51:07.038Z,38.56
2022-08-26T09:53:50.832Z,38.43
2022-08-26T09:56:27.584Z,40.33
2022-08-26T09:58:58.339Z,41.49
2022-08-26T10:01:33.481Z,40.79
2022-08-26T10:04:09.930Z,37.93
2022-08-26T10:06:43.421Z,39.17
2022-08-26T10:09:15.179Z,37.66
2022-08-26T10:11:47.146Z,37.67
2022-08-26T10:14:22.515Z,39.67
2022-08-26T10:16:58.250Z,36.43
2022-08-26T10:19:55.522Z,37.53
2022-08-26T10:22:25.246Z,36.66
2022-08-26T10:24:58.872Z,35.80
2022-08-26T10:27:37.709Z,35.99
2022-08-26T10:30:13.829Z,33.21
2022-08-26T10:32:50.125Z,32.54
2022-08-26T10:35:20.547Z,32.18
2022-08-26T10:37:54.302Z,33.82
2022-08-26T10:40:27.825Z,35.68
2022-08-26T10:42:59.685Z,34.06
2022-08-26T10:45:30.834Z,30.83
2022-08-26T10:48:06.709Z,29.92
2022-08-26T10:50:40.299Z,28.98
2022-08-26T10:53:14.712Z,31.29
2022-08-26T10:55:54.886Z,31.40
2022-08-26T10:58:39.074Z,31.11
2022-08-26T11:01:33.553Z,28.74
2022-08-26T11:04:10.046Z,28.42
2022-08-26T11:06:39.404Z,27.99
2022-08-26T11:09:10.717Z,25.58
2022-08-26T11:11:50.941Z,26.32
2022-08-26T11:14:53.396Z,26.92
2022-08-26T11:18:00.044Z,29.42
2022-08-26T11:20:42.020Z,32.09
2022-08-26T11:23:41.601Z,33.43
2022-08-26T11:26:35.582Z,30.88
2022-08-26T11:29:12.201Z,27.77
2022-08-26T11:31:56.115Z,27.67
2022-08-26T11:34:54.212Z,27.37
2022-08-26T11:37:30.998Z,26.94
2022-08-26T11:40:04.168Z,25.45
2022-08-26T11:42:41.671Z,25.23
2022-08-26T11:45:23.910Z,24.49
2022-08-26T11:47:52.755Z,23.79
2022-08-26T11:50:26.220Z,24.59
2022-08-26T11:53:01.956Z,25.34
2022-08-26T11:55:32.333Z,24.77
2022-08-26T11:58:06.614Z,24.68
2022-08-26T12:00:51.383Z,25.94
2022-08-26T12:03:24.026Z,27.30
2022-08-26T12:05:54.666Z,27.91
2022-08-26T12:08:28.702Z,29.57
2022-08-26T12:11:04.501Z,32.17
2022-08-26T12:13:33.107Z,35.22
2022-08-26T12:16:02.713Z,35.78
2022-08-26T12:18:34.770Z,36.46
2022-08-26T12:21:13.444Z,37.45
2022-08-26T12:23:46.703Z,37.36
2022-08-26T12:26:24.618Z,38.50
2022-08-26T12:28:57.544Z,38.18
2022-08-26T12:31:32.558Z,39.01
2022-08-26T12:34:04.956Z,38.88
2022-08-26T12:36:37.693Z,39.31
2022-08-26T12:39:12.484Z,40.63
2022-08-26T12:41:50.529Z,39.52
2022-08-26T12:44:36.724Z,40.26
2022-08-26T12:47:10.197Z,39.49
2022-08-26T12:49:40.763Z,39.30
2022-08-26T12:52:30.145Z,39.82
2022-08-26T12:55:03.398Z,40.89
2022-08-26T12:57:35.237Z,40.41
2022-08-26T13:00:30.372Z,40.46
2022-08-26T13:02:59.304Z,41.81
2022-08-26T13:05:33.196Z,41.74
2022-08-26T13:08:16.969Z,41.68
2022-08-26T13:10:48.923Z,41.69
2022-08-26T13:13:17.378Z,40.61
2022-08-26T13:15:45.916Z,41.28
2022-08-26T13:18:14.496Z,41.08
2022-08-26T13:20:44.955Z,40.58
2022-08-26T13:23:15.068Z,41.35
2022-08-26T13:25:43.803Z,41.63
2022-08-26T13:28:13.758Z,40.92
2022-08-26T13:30:45.639Z,40.28
2022-08-26T13:33:14.964Z,40.76
2022-08-26T13:35:43.422Z,41.46
2022-08-26T13:38:22.326Z,41.40
2022-08-26T13:41:02.766Z,42.02
2022-08-26T13:43:33.798Z,41.59
2022-08-26T13:46:02.772Z,41.53
2022-08-26T13:48:31.538Z,40.66
2022-08-26T13:51:00.277Z,41.45
2022-08-26T13:53:29.567Z,42.74
2022-08-26T13:55:58.147Z,45.15
2022-08-26T13:58:26.844Z,47.60
2022-08-26T14:00:58.802Z,47.67
2022-08-26T14:03:28.229Z,47.84
2022-08-26T14:05:56.810Z,49.77
2022-08-26T14:08:25.396Z,48.91
2022-08-26T14:10:54.058Z,51.15
2022-08-26T14:13:22.725Z,51.75
2022-08-26T14:15:51.348Z,50.18
2022-08-26T14:18:29.212Z,51.04
2022-08-26T14:20:58.000Z,51.20
2022-08-26T14:23:26.455Z,52.81
2022-08-26T14:25:55.525Z,52.31
2022-08-26T14:30:59.512Z,53.87
2022-08-26T14:33:32.847Z,55.18
2022-08-26T14:36:15.233Z,56.16
2022-08-26T14:38:43.703Z,56.04
2022-08-26T14:41:13.680Z,56.18
2022-08-26T14:43:48.083Z,56.28
2022-08-26T14:46:17.126Z,56.61
2022-08-26T14:48:47.057Z,58.17
2022-08-26T14:51:15.567Z,58.48
2022-08-26T14:54:01.598Z,58.51
2022-08-26T14:56:32.114Z,59.05
2022-08-26T14:59:00.859Z,60.35
2022-08-26T15:01:31.099Z,61.22
2022-08-26T15:04:02.456Z,61.92
2022-08-26T15:06:32.059Z,62.35
2022-08-26T15:09:01.122Z,62.62
2022-08-26T15:11:29.809Z,62.47
2022-08-26T15:13:59.922Z,61.58
2022-08-26T15:16:29.278Z,61.90
2022-08-26T15:18:58.161Z,62.50
2022-08-26T15:21:28.798Z,61.84
2022-08-26T15:23:57.280Z,61.75
2022-08-26T15:26:25.838Z,61.71
2022-08-26T15:28:54.316Z,63.10
2022-08-26T15:31:31.148Z,62.03
2022-08-26T15:34:02.578Z,62.49
2022-08-26T15:36:33.607Z,61.60
2022-08-26T15:39:02.865Z,61.00
2022-08-26T15:41:31.477Z,61.29
2022-08-26T15:44:04.215Z,61.73
2022-08-26T15:46:32.833Z,58.60
2022-08-26T15:49:01.689Z,58.95
2022-08-26T15:51:45.802Z,59.39
2022-08-26T15:54:16.105Z,59.90
2022-08-26T15:56:45.564Z,59.67
2022-08-26T15:59:16.615Z,60.04
2022-08-26T16:01:45.803Z,59.45
2022-08-26T16:04:15.021Z,60.70
2022-08-26T16:06:50.285Z,60.66
2022-08-26T16:09:20.138Z,60.95
2022-08-26T16:11:48.774Z,60.90
2022-08-26T16:14:17.757Z,61.17
2022-08-26T16:16:47.222Z,59.83
2022-08-26T16:19:16.606Z,59.96
2022-08-26T16:21:46.764Z,59.89
2022-08-26T16:24:15.485Z,60.74
2022-08-26T16:26:45.302Z,60.56
2022-08-26T16:29:17.126Z,61.87
2022-08-26T16:31:45.685Z,60.48
2022-08-26T16:34:14.425Z,59.21
2022-08-26T16:36:43.882Z,59.78
2022-08-26T16:39:14.226Z,60.56
2022-08-26T16:41:42.730Z,60.41
2022-08-26T16:44:12.081Z,60.40
2022-08-26T16:46:41.291Z,61.32
2022-08-26T16:49:09.865Z,59.53
2022-08-26T16:51:38.569Z,59.09
2022-08-26T16:54:08.871Z,59.59
2022-08-26T16:56:39.424Z,59.67
2022-08-26T16:59:11.633Z,60.07
2022-08-26T17:01:40.332Z,60.89
2022-08-26T17:04:09.333Z,60.47
2022-08-26T17:06:38.414Z,61.32
2022-08-26T17:09:07.155Z,61.76
2022-08-26T17:11:36.175Z,61.99
2022-08-26T17:14:06.414Z,62.80
2022-08-26T17:16:35.336Z,62.71
2022-08-26T17:19:04.681Z,62.65
2022-08-26T17:21:35.091Z,63.19
2022-08-26T17:24:04.155Z,63.71
2022-08-26T17:26:32.661Z,63.85
2022-08-26T17:29:01.311Z,65.17
2022-08-26T17:31:32.765Z,64.33
2022-08-26T17:34:01.471Z,65.15
2022-08-26T17:36:30.038Z,65.08
2022-08-26T17:39:00.115Z,65.03
2022-08-26T17:41:28.753Z,65.80
2022-08-26T17:43:57.391Z,66.46
2022-08-26T17:46:26.002Z,66.71
2022-08-26T17:48:56.532Z,65.48
2022-08-26T17:51:25.439Z,65.13
2022-08-26T17:53:54.607Z,66.26
2022-08-26T17:56:25.688Z,65.24
2022-08-26T17:58:56.872Z,66.32
2022-08-26T18:01:27.623Z,66.68
2022-08-26T18:04:00.420Z,67.91
2022-08-26T18:06:31.421Z,67.79
2022-08-26T18:09:00.535Z,67.94
2022-08-26T18:11:29.430Z,68.57
2022-08-26T18:13:58.344Z,67.81
2022-08-26T18:16:27.490Z,68.26
2022-08-26T18:18:58.597Z,69.53
2022-08-26T18:21:28.944Z,69.00
2022-08-26T18:23:57.667Z,70.06
2022-08-26T18:26:31.351Z,71.06
2022-08-26T18:29:00.541Z,72.12
2022-08-26T18:31:30.341Z,72.24
2022-08-26T18:34:01.519Z,72.98
2022-08-26T18:36:31.977Z,74.44
2022-08-26T18:39:01.334Z,74.66
2022-08-26T18:41:31.812Z,76.05
2022-08-26T18:44:01.047Z,77.48
2022-08-26T18:46:29.799Z,78.43
2022-08-26T18:48:59.928Z,79.58
2022-08-26T18:51:30.789Z,81.26
2022-08-26T18:54:00.307Z,83.55
2022-08-26T18:56:29.769Z,86.30
2022-08-26T18:58:59.104Z,87.80
2022-08-26T19:01:30.110Z,89.00
2022-08-26T19:04:02.099Z,89.28
2022-08-26T19:06:33.032Z,89.88
2022-08-26T19:09:01.904Z,91.08
2022-08-26T19:11:32.239Z,91.54
2022-08-26T19:14:07.850Z,92.70
2022-08-26T19:16:36.862Z,93.28
2022-08-26T19:19:07.757Z,93.84
2022-08-26T19:21:37.911Z,94.22
2022-08-26T19:24:09.471Z,96.17
2022-08-26T19:26:39.106Z,97.90
2022-08-26T19:29:07.781Z,99.06
2022-08-26T19:31:36.496Z,99.77
2022-08-26T19:34:07.178Z,100.00
2022-08-26T19:36:36.949Z,100.00
2022-08-26T19:39:07.660Z,100.00
2022-08-26T19:41:38.184Z,100.00
2022-08-26T19:44:09.383Z,100.00
2022-08-26T19:49:13.168Z,100.00
2022-08-26T19:51:42.061Z,100.00
2022-08-26T19:54:10.562Z,100.00
2022-08-26T19:56:39.043Z,100.00
2022-08-26T19:59:07.544Z,100.00
2022-08-26T20:01:36.792Z,100.00
2022-08-26T20:04:05.679Z,100.00
2022-08-26T20:06:35.913Z,100.00
2022-08-26T20:09:05.071Z,100.00
2022-08-26T20:11:33.618Z,100.00
2022-08-26T20:14:02.122Z,100.00
2022-08-26T20:16:30.687Z,100.00
2022-08-26T20:19:16.654Z,100.00
2022-08-26T20:21:47.086Z,100.00
2022-08-26T20:24:18.254Z,100.00
2022-08-26T20:26:47.023Z,100.00
2022-08-26T20:29:19.041Z,100.00
2022-08-26T20:31:48.004Z,100.00
2022-08-26T20:34:18.721Z,100.00
2022-08-26T20:36:50.301Z,100.00
2022-08-26T20:39:21.107Z,100.00
2022-08-26T20:41:50.365Z,100.00
2022-08-26T20:44:19.006Z,100.00
2022-08-26T20:46:47.525Z,100.00
2022-08-26T20:49:18.160Z,100.00
2022-08-26T20:51:51.174Z,100.00
2022-08-26T20:54:24.012Z,100.00
2022-08-26T20:56:56.693Z,100.00
2022-08-26T20:59:26.025Z,100.00
2022-08-26T21:01:54.615Z,100.00
2022-08-26T21:04:25.206Z,100.00
2022-08-26T21:06:55.754Z,100.00
2022-08-26T21:09:26.099Z,100.00
2022-08-26T21:11:55.956Z,100.00
2022-08-26T21:14:25.943Z,100.00
2022-08-26T21:16:54.918Z,100.00
2022-08-26T21:19:23.815Z,100.00
2022-08-26T21:21:52.289Z,100.00
2022-08-26T21:24:23.319Z,100.00
2022-08-26T21:26:51.806Z,100.00
2022-08-26T21:29:22.142Z,100.00
2022-08-26T21:31:50.746Z,100.00
2022-08-26T21:34:20.462Z,100.00
2022-08-26T21:36:49.736Z,100.00
2022-08-26T21:39:18.626Z,100.00
2022-08-26T21:41:48.690Z,100.00
2022-08-26T21:44:18.874Z,100.00
2022-08-26T21:46:47.724Z,100.00
2022-08-26T21:49:17.520Z,100.00
2022-08-26T21:51:49.296Z,100.00
2022-08-26T21:54:18.784Z,100.00
2022-08-26T21:56:49.363Z,100.00
2022-08-26T21:59:20.032Z,100.00
2022-08-26T22:01:49.034Z,100.00
2022-08-26T22:04:18.255Z,100.00
2022-08-26T22:06:57.956Z,100.00
2022-08-26T22:09:28.902Z,100.00
2022-08-26T22:11:59.492Z,100.00
2022-08-26T22:14:30.849Z,100.00
2022-08-26T22:17:00.593Z,100.00
2022-08-26T22:19:31.890Z,100.00
2022-08-26T22:22:03.870Z,100.00
2022-08-26T22:24:32.400Z,100.00
2022-08-26T22:27:02.379Z,100.00
2022-08-26T22:29:33.736Z,100.00
2022-08-26T22:32:02.452Z,100.00
2022-08-26T22:34:31.352Z,100.00
2022-08-26T22:37:00.242Z,100.00
2022-08-26T22:39:28.803Z,100.00
2022-08-26T22:41:57.558Z,100.00
2022-08-26T22:44:27.545Z,100.00
2022-08-26T22:46:56.156Z,100.00
2022-08-26T22:49:25.281Z,100.00
2022-08-26T22:51:54.085Z,100.00
2022-08-26T22:54:22.742Z,100.00
2022-08-26T22:56:51.388Z,100.00
2022-08-26T22:59:19.895Z,100.00
2022-08-26T23:01:49.753Z,100.00
2022-08-26T23:04:18.347Z,100.00
2022-08-26T23:06:47.505Z,100.00
2022-08-26T23:09:18.523Z,100.00
2022-08-26T23:11:48.999Z,100.00
2022-08-26T23:14:18.622Z,100.00
2022-08-26T23:16:47.762Z,100.00
2022-08-26T23:19:20.147Z,100.00
2022-08-26T23:21:49.634Z,100.00
2022-08-26T23:24:18.714Z,100.00
2022-08-26T23:26:48.184Z,100.00
2022-08-26T23:29:16.746Z,100.00
2022-08-26T23:31:45.666Z,100.00
2022-08-26T23:34:32.146Z,100.00
2022-08-26T23:37:06.731Z,100.00
2022-08-26T23:39:36.359Z,100.00
2022-08-26T23:42:06.646Z,100.00
2022-08-26T23:44:35.651Z,100.00
2022-08-26T23:47:04.951Z,100.00
2022-08-26T23:49:34.606Z,100.00
2022-08-26T23:52:22.785Z,100.00
2022-08-26T23:54:52.457Z,100.00
2022-08-26T23:57:22.970Z,100.00
2022-08-26T23:59:51.778Z,100.00
